createdAt,value
2023-05-04T00:00:47.034Z,5.80
2023-05-04T00:05:50.335Z,6.00
2023-05-04T00:10:56.777Z,5.80
2023-05-04T00:16:00.194Z,5.80
2023-05-04T00:21:03.696Z,5.70
2023-05-04T00:26:08.680Z,5.60
2023-05-04T00:31:12.173Z,5.40
2023-05-04T00:36:16.016Z,5.40
2023-05-04T00:41:21.785Z,5.50
2023-05-04T00:46:25.333Z,5.40
2023-05-04T00:51:28.836Z,5.50
2023-05-04T00:56:39.103Z,5.40
2023-05-04T01:01:42.653Z,5.30
2023-05-04T01:06:52.812Z,5.20
2023-05-04T01:12:04.830Z,5.00
2023-05-04T01:17:08.887Z,5.00
2023-05-04T01:22:13.627Z,5.00
2023-05-04T01:27:23.003Z,4.90
2023-05-04T01:32:29.401Z,4.80
2023-05-04T01:37:36.010Z,4.70
2023-05-04T01:42:39.614Z,4.60
2023-05-04T01:47:43.066Z,4.50
2023-05-04T01:52:49.162Z,4.40
2023-05-04T01:57:52.819Z,4.30
2023-05-04T02:02:56.347Z,4.30
2023-05-04T02:08:01.276Z,4.10
2023-05-04T02:13:04.765Z,4.10
2023-05-04T02:18:08.361Z,4.00
2023-05-04T02:23:13.143Z,4.00
2023-05-04T02:28:16.960Z,3.90
2023-05-04T02:33:20.413Z,3.80
2023-05-04T02:38:26.935Z,3.70
2023-05-04T02:43:30.451Z,3.70
2023-05-04T02:48:34.396Z,3.70
2023-05-04T02:53:39.166Z,3.60
2023-05-04T02:58:42.485Z,3.50
2023-05-04T03:03:46.068Z,3.50
2023-05-04T03:08:51.110Z,3.30
2023-05-04T03:13:54.537Z,3.40
2023-05-04T03:18:58.244Z,3.40
2023-05-04T03:24:03.609Z,3.40
2023-05-04T03:29:07.021Z,3.30
2023-05-04T03:34:12.627Z,3.30
2023-05-04T03:39:18.334Z,3.20
2023-05-04T03:44:22.823Z,3.20
2023-05-04T03:49:26.211Z,3.30
2023-05-04T03:54:31.352Z,3.30
2023-05-04T03:59:35.097Z,3.20
2023-05-04T04:04:41.270Z,3.30
2023-05-04T04:09:48.197Z,3.30
2023-05-04T04:14:54.347Z,3.40
2023-05-04T04:19:57.692Z,3.40
2023-05-04T04:25:02.436Z,3.50
2023-05-04T04:30:06.988Z,3.70
2023-05-04T04:35:10.877Z,3.90
2023-05-04T04:40:15.701Z,4.10
2023-05-04T04:45:20.501Z,4.30
2023-05-04T04:50:23.916Z,4.40
2023-05-04T04:55:28.858Z,4.60
2023-05-04T05:00:32.206Z,5.00
2023-05-04T05:05:35.898Z,5.10
2023-05-04T05:10:43.189Z,5.40
2023-05-04T05:15:47.801Z,5.90
2023-05-04T05:20:51.264Z,8.30
2023-05-04T05:25:56.715Z,11.50
2023-05-04T05:31:00.416Z,13.50
2023-05-04T05:36:05.477Z,15.50
2023-05-04T05:41:11.561Z,16.70
2023-05-04T05:46:15.336Z,17.40
2023-05-04T05:51:18.773Z,16.60
2023-05-04T05:56:23.592Z,17.20
2023-05-04T06:01:27.170Z,17.80
2023-05-04T06:06:30.693Z,17.90
2023-05-04T06:11:55.640Z,18.60
2023-05-04T06:17:01.272Z,16.80
2023-05-04T06:22:05.931Z,16.90
2023-05-04T06:27:11.627Z,18.40
2023-05-04T06:32:15.610Z,19.70
2023-05-04T06:37:19.548Z,20.70
2023-05-04T06:42:24.720Z,20.90
2023-05-04T06:47:31.032Z,21.20
2023-05-04T06:52:35.016Z,21.40
2023-05-04T06:57:40.024Z,21.50
2023-05-04T07:02:43.916Z,20.90
2023-05-04T07:07:48.109Z,21.80
2023-05-04T07:12:53.951Z,20.70
2023-05-04T07:17:57.585Z,21.00
2023-05-04T07:23:01.064Z,22.30
2023-05-04T07:28:06.097Z,23.60
2023-05-04T07:33:11.184Z,22.50
2023-05-04T07:38:15.374Z,21.80
2023-05-04T07:43:20.377Z,22.60
2023-05-04T07:48:26.172Z,23.00
2023-05-04T07:53:30.264Z,23.20
2023-05-04T07:58:35.482Z,24.00
2023-05-04T08:03:39.656Z,24.10
2023-05-04T08:08:44.504Z,23.00
2023-05-04T08:13:50.235Z,22.20
2023-05-04T08:18:56.200Z,24.90
2023-05-04T08:24:02.630Z,24.40
2023-05-04T08:29:10.631Z,25.00
2023-05-04T08:34:14.704Z,24.60
2023-05-04T08:39:19.735Z,23.00
2023-05-04T08:44:24.945Z,23.40
2023-05-04T08:49:30.749Z,24.70
2023-05-04T08:54:36.252Z,24.70
2023-05-04T08:59:45.103Z,24.70
2023-05-04T09:04:49.108Z,23.00
2023-05-04T09:09:53.038Z,23.30
2023-05-04T09:14:59.555Z,24.10
2023-05-04T09:20:04.985Z,25.10
2023-05-04T09:25:11.070Z,23.30
2023-05-04T09:30:21.967Z,25.50
2023-05-04T09:35:33.475Z,26.00
2023-05-04T09:40:41.372Z,25.10
2023-05-04T09:45:47.722Z,25.50
2023-05-04T09:50:53.676Z,24.60
2023-05-04T09:56:07.254Z,24.00
2023-05-04T10:01:13.827Z,23.70
2023-05-04T10:06:19.070Z,24.00
2023-05-04T10:11:25.852Z,23.20
2023-05-04T10:16:38.869Z,22.60
2023-05-04T10:21:53.340Z,23.70
2023-05-04T10:27:09.108Z,24.70
2023-05-04T10:32:22.341Z,24.70
2023-05-04T10:37:26.178Z,24.60
2023-05-04T10:42:40.246Z,24.20
2023-05-04T10:47:45.353Z,24.50
2023-05-04T10:52:50.173Z,25.10
2023-05-04T10:57:54.971Z,24.60
2023-05-04T11:03:04.099Z,24.50
2023-05-04T11:08:15.892Z,24.60
2023-05-04T11:13:20.242Z,23.80
2023-05-04T11:18:31.196Z,23.10
2023-05-04T11:23:36.568Z,22.70
2023-05-04T11:28:40.245Z,22.70
2023-05-04T11:33:49.046Z,23.50
2023-05-04T11:38:56.065Z,24.30
2023-05-04T11:44:01.724Z,24.10
2023-05-04T11:49:06.747Z,24.00
2023-05-04T11:54:20.039Z,24.60
2023-05-04T11:59:24.161Z,24.30
2023-05-04T12:04:32.988Z,24.20
2023-05-04T12:09:44.212Z,23.30
2023-05-04T12:14:48.822Z,23.30
2023-05-04T12:19:54.947Z,23.20
2023-05-04T12:25:01.414Z,21.80
2023-05-04T12:30:06.474Z,22.60
2023-05-04T12:35:11.973Z,23.00
2023-05-04T12:40:27.700Z,23.80
2023-05-04T12:45:32.112Z,24.00
2023-05-04T12:50:37.471Z,23.00
2023-05-04T12:55:41.474Z,23.00
2023-05-04T13:00:46.106Z,23.50
2023-05-04T13:05:51.261Z,23.50
2023-05-04T13:10:55.038Z,23.90
2023-05-04T13:15:58.516Z,23.30
2023-05-04T13:21:03.298Z,23.70
2023-05-04T13:26:06.929Z,22.80
2023-05-04T13:31:10.398Z,22.40
2023-05-04T13:36:15.206Z,22.90
2023-05-04T13:41:20.694Z,23.70
2023-05-04T13:46:24.348Z,23.60
2023-05-04T13:51:29.232Z,22.00
2023-05-04T13:56:32.564Z,22.90
2023-05-04T14:01:35.856Z,22.70
2023-05-04T14:06:40.710Z,23.40
2023-05-04T14:11:46.284Z,23.30
2023-05-04T14:16:49.537Z,23.30
2023-05-04T14:21:54.374Z,23.00
2023-05-04T14:26:57.729Z,23.30
2023-05-04T14:32:01.227Z,23.30
2023-05-04T14:37:06.032Z,22.60
2023-05-04T14:42:10.802Z,22.90
2023-05-04T14:47:14.576Z,22.60
2023-05-04T14:52:19.342Z,22.70
2023-05-04T14:57:22.987Z,22.70
2023-05-04T15:02:27.337Z,21.70
2023-05-04T15:07:31.967Z,22.20
2023-05-04T15:12:35.195Z,22.60
2023-05-04T15:17:38.848Z,22.60
2023-05-04T15:22:47.250Z,22.60
2023-05-04T15:27:50.682Z,22.20
2023-05-04T15:32:54.378Z,21.60
2023-05-04T15:37:59.596Z,21.80
2023-05-04T15:43:03.755Z,21.20
2023-05-04T15:48:07.170Z,21.60
2023-05-04T15:53:11.888Z,21.90
2023-05-04T15:58:15.519Z,21.50
2023-05-04T16:03:19.115Z,20.80
2023-05-04T16:08:23.898Z,21.00
2023-05-04T16:13:27.485Z,21.40
2023-05-04T16:18:30.967Z,21.30
2023-05-04T16:23:36.408Z,20.70
2023-05-04T16:28:40.680Z,20.90
2023-05-04T16:33:47.364Z,20.90
2023-05-04T16:38:52.268Z,20.60
2023-05-04T16:43:56.178Z,20.90
2023-05-04T16:48:59.445Z,21.00
2023-05-04T16:54:04.188Z,20.30
2023-05-04T16:59:08.164Z,19.40
2023-05-04T17:04:11.734Z,19.10
2023-05-04T17:09:16.701Z,19.10
2023-05-04T17:14:20.052Z,18.80
2023-05-04T17:19:23.399Z,18.50
2023-05-04T17:24:28.043Z,18.40
2023-05-04T17:29:31.518Z,18.20
2023-05-04T17:34:35.207Z,18.00
2023-05-04T17:39:40.015Z,18.00
2023-05-04T17:44:43.397Z,17.90
2023-05-04T17:49:47.686Z,17.60
2023-05-04T17:54:53.880Z,17.50
2023-05-04T17:59:57.596Z,17.30
2023-05-04T18:05:01.380Z,17.10
2023-05-04T18:10:07.463Z,16.90
2023-05-04T18:15:12.012Z,16.80
2023-05-04T18:20:15.811Z,16.80
2023-05-04T18:25:20.512Z,16.80
2023-05-04T18:30:23.957Z,16.60
2023-05-04T18:35:27.348Z,16.60
2023-05-04T18:40:32.072Z,16.40
2023-05-04T18:45:35.584Z,16.30
2023-05-04T18:50:39.154Z,16.10
2023-05-04T18:55:43.846Z,15.90
2023-05-04T19:00:47.226Z,15.80
2023-05-04T19:05:51.013Z,15.70
2023-05-04T19:10:59.215Z,15.70
2023-05-04T19:16:03.281Z,15.60
2023-05-04T19:21:06.916Z,15.70
2023-05-04T19:26:11.743Z,15.60
2023-05-04T19:31:15.541Z,15.50
2023-05-04T19:36:19.346Z,15.50
2023-05-04T19:41:24.809Z,15.40
2023-05-04T19:46:29.703Z,15.30
2023-05-04T19:51:33.990Z,15.30
2023-05-04T19:56:39.097Z,15.10
2023-05-04T20:01:42.448Z,14.80
2023-05-04T20:06:45.814Z,14.70
2023-05-04T20:11:51.033Z,14.60
2023-05-04T20:16:55.906Z,14.60
2023-05-04T20:22:00.104Z,14.60
2023-05-04T20:27:04.984Z,14.60
2023-05-04T20:32:09.045Z,14.60
2023-05-04T20:37:13.380Z,14.60
2023-05-04T20:42:18.707Z,14.40
2023-05-04T20:47:22.175Z,14.30
2023-05-04T20:52:25.605Z,14.10
2023-05-04T20:57:30.516Z,14.00
2023-05-04T21:02:34.013Z,13.80
2023-05-04T21:07:37.632Z,13.70
2023-05-04T21:12:42.396Z,13.40
2023-05-04T21:17:46.867Z,13.30
2023-05-04T21:22:50.278Z,13.20
2023-05-04T21:27:56.760Z,13.20
2023-05-04T21:33:00.775Z,12.90
2023-05-04T21:38:04.183Z,12.60
2023-05-04T21:43:08.858Z,12.60
2023-05-04T21:48:12.226Z,12.60
2023-05-04T21:53:15.648Z,12.50
2023-05-04T21:58:20.369Z,12.30
2023-05-04T22:03:23.860Z,12.20
2023-05-04T22:08:28.033Z,12.10
2023-05-04T22:13:33.357Z,12.00
2023-05-04T22:18:36.924Z,11.90
2023-05-04T22:23:41.637Z,11.90
2023-05-04T22:28:46.677Z,11.90
2023-05-04T22:33:50.002Z,11.90
2023-05-04T22:38:53.474Z,11.80
2023-05-04T22:43:58.066Z,11.60
2023-05-04T22:49:01.776Z,11.30
2023-05-04T22:54:06.048Z,11.30
2023-05-04T22:59:10.635Z,11.10
2023-05-04T23:04:14.484Z,10.90
2023-05-04T23:09:17.815Z,10.80
2023-05-04T23:14:22.727Z,10.70
2023-05-04T23:19:26.533Z,10.80
2023-05-04T23:24:29.816Z,10.70
2023-05-04T23:29:34.873Z,10.80
2023-05-04T23:34:38.196Z,10.80
2023-05-04T23:39:41.507Z,10.80
2023-05-04T23:44:46.771Z,10.80
2023-05-04T23:49:50.117Z,10.80
2023-05-04T23:54:53.891Z,10.70
2023-05-04T23:59:58.679Z,10.60
